sensor_id;sensor_type;location;lat;lon;timestamp;pressure;altitude;pressure_sealevel;temperature;humidity
51299;BME280;37382;45.192;9.790;2023-07-16T00:00:17;101027.38;;;26.67;100.00
51299;BME280;37382;45.192;9.790;2023-07-16T00:02:53;101024.78;;;26.71;100.00
51299;BME280;37382;45.192;9.790;2023-07-16T00:05:21;101023.56;;;26.58;100.00
51299;BME280;37382;45.192;9.790;2023-07-16T00:07:48;101023.78;;;26.61;100.00
51299;BME280;37382;45.192;9.790;2023-07-16T00:10:16;101020.00;;;26.52;100.00
51299;BME280;37382;45.192;9.790;2023-07-16T00:12:44;101012.78;;;26.51;100.00
51299;BME280;37382;45.192;9.790;2023-07-16T00:15:11;101018.66;;;26.25;100.00
51299;BME280;37382;45.192;9.790;2023-07-16T00:17:38;101014.13;;;26.30;100.00
51299;BME280;37382;45.192;9.790;2023-07-16T00:20:06;101016.09;;;26.53;100.00
51299;BME280;37382;45.192;9.790;2023-07-16T00:22:35;101013.81;;;26.55;100.00
51299;BME280;37382;45.192;9.790;2023-07-16T00:25:02;101015.75;;;26.36;100.00
51299;BME280;37382;45.192;9.790;2023-07-16T00:27:30;101018.06;;;26.28;100.00
51299;BME280;37382;45.192;9.790;2023-07-16T00:29:58;101012.00;;;26.21;100.00
51299;BME280;37382;45.192;9.790;2023-07-16T00:32:25;101016.31;;;26.33;100.00
51299;BME280;37382;45.192;9.790;2023-07-16T00:34:53;101020.59;;;26.25;100.00
51299;BME280;37382;45.192;9.790;2023-07-16T00:37:20;101025.06;;;26.02;100.00
51299;BME280;37382;45.192;9.790;2023-07-16T00:39:48;101027.50;;;26.08;100.00
51299;BME280;37382;45.192;9.790;2023-07-16T00:42:16;101027.66;;;26.17;100.00
51299;BME280;37382;45.192;9.790;2023-07-16T00:44:44;101017.41;;;26.13;100.00
51299;BME280;37382;45.192;9.790;2023-07-16T00:47:12;101022.59;;;25.95;100.00
51299;BME280;37382;45.192;9.790;2023-07-16T00:49:39;101016.72;;;25.97;100.00
51299;BME280;37382;45.192;9.790;2023-07-16T00:52:11;101018.13;;;25.99;100.00
51299;BME280;37382;45.192;9.790;2023-07-16T00:54:41;101024.81;;;25.93;100.00
51299;BME280;37382;45.192;9.790;2023-07-16T00:57:09;101028.84;;;25.82;100.00
51299;BME280;37382;45.192;9.790;2023-07-16T00:59:37;101031.34;;;25.83;100.00
51299;BME280;37382;45.192;9.790;2023-07-16T01:02:05;101026.44;;;25.70;100.00
51299;BME280;37382;45.192;9.790;2023-07-16T01:04:33;101021.91;;;25.79;100.00
51299;BME280;37382;45.192;9.790;2023-07-16T01:07:04;101020.84;;;25.75;100.00
51299;BME280;37382;45.192;9.790;2023-07-16T01:09:33;101016.84;;;25.52;100.00
51299;BME280;37382;45.192;9.790;2023-07-16T01:12:04;101030.63;;;25.38;100.00
51299;BME280;37382;45.192;9.790;2023-07-16T01:14:32;101026.97;;;25.43;100.00
51299;BME280;37382;45.192;9.790;2023-07-16T01:17:04;101024.38;;;25.51;100.00
51299;BME280;37382;45.192;9.790;2023-07-16T01:19:34;101019.56;;;25.22;100.00
51299;BME280;37382;45.192;9.790;2023-07-16T01:22:20;101016.78;;;25.28;100.00
51299;BME280;37382;45.192;9.790;2023-07-16T01:30:20;101006.59;;;25.08;100.00
51299;BME280;37382;45.192;9.790;2023-07-16T01:32:52;101011.69;;;24.95;100.00
51299;BME280;37382;45.192;9.790;2023-07-16T01:35:20;101012.44;;;25.06;100.00
51299;BME280;37382;45.192;9.790;2023-07-16T01:37:48;101009.81;;;25.25;100.00
51299;BME280;37382;45.192;9.790;2023-07-16T01:40:16;101002.81;;;25.33;100.00
51299;BME280;37382;45.192;9.790;2023-07-16T01:42:43;101001.66;;;25.39;100.00
51299;BME280;37382;45.192;9.790;2023-07-16T01:45:10;101004.44;;;25.39;100.00
51299;BME280;37382;45.192;9.790;2023-07-16T01:50:34;101011.28;;;25.17;100.00
51299;BME280;37382;45.192;9.790;2023-07-16T01:53:01;101005.94;;;25.21;100.00
51299;BME280;37382;45.192;9.790;2023-07-16T01:55:29;101007.97;;;25.10;100.00
51299;BME280;37382;45.192;9.790;2023-07-16T01:57:57;101006.59;;;25.08;100.00
51299;BME280;37382;45.192;9.790;2023-07-16T02:00:24;100997.75;;;25.00;100.00
51299;BME280;37382;45.192;9.790;2023-07-16T02:02:52;101004.00;;;25.21;100.00
51299;BME280;37382;45.192;9.790;2023-07-16T02:05:19;101000.84;;;25.38;100.00
51299;BME280;37382;45.192;9.790;2023-07-16T02:07:47;101014.59;;;25.19;100.00
51299;BME280;37382;45.192;9.790;2023-07-16T02:10:15;101009.28;;;25.23;100.00
51299;BME280;37382;45.192;9.790;2023-07-16T02:12:42;100996.31;;;25.03;100.00
51299;BME280;37382;45.192;9.790;2023-07-16T02:15:10;100990.22;;;25.01;100.00
51299;BME280;37382;45.192;9.790;2023-07-16T02:17:38;100999.78;;;24.84;100.00
51299;BME280;37382;45.192;9.790;2023-07-16T02:20:07;100993.66;;;24.88;100.00
51299;BME280;37382;45.192;9.790;2023-07-16T02:22:35;100994.81;;;24.81;100.00
51299;BME280;37382;45.192;9.790;2023-07-16T02:25:03;100998.16;;;24.78;100.00
51299;BME280;37382;45.192;9.790;2023-07-16T02:27:31;100994.03;;;24.71;100.00
51299;BME280;37382;45.192;9.790;2023-07-16T02:29:59;100986.56;;;24.66;100.00
51299;BME280;37382;45.192;9.790;2023-07-16T02:32:27;100986.84;;;24.64;100.00
51299;BME280;37382;45.192;9.790;2023-07-16T02:34:54;100984.81;;;24.75;100.00
51299;BME280;37382;45.192;9.790;2023-07-16T02:37:22;100992.03;;;24.81;100.00
51299;BME280;37382;45.192;9.790;2023-07-16T02:39:50;100994.22;;;24.84;100.00
51299;BME280;37382;45.192;9.790;2023-07-16T02:42:17;101000.47;;;24.56;100.00
51299;BME280;37382;45.192;9.790;2023-07-16T02:44:45;100992.72;;;24.47;100.00
51299;BME280;37382;45.192;9.790;2023-07-16T02:47:13;100987.75;;;24.44;100.00
51299;BME280;37382;45.192;9.790;2023-07-16T02:49:41;100991.09;;;24.41;100.00
51299;BME280;37382;45.192;9.790;2023-07-16T02:52:09;100992.16;;;24.50;100.00
51299;BME280;37382;45.192;9.790;2023-07-16T02:54:37;100996.03;;;24.55;100.00
51299;BME280;37382;45.192;9.790;2023-07-16T02:57:05;100995.03;;;24.35;100.00
51299;BME280;37382;45.192;9.790;2023-07-16T02:59:32;100990.53;;;24.44;100.00
51299;BME280;37382;45.192;9.790;2023-07-16T03:02:01;100981.28;;;24.54;100.00
51299;BME280;37382;45.192;9.790;2023-07-16T03:04:28;100980.44;;;24.64;100.00
51299;BME280;37382;45.192;9.790;2023-07-16T03:06:56;100989.78;;;24.83;100.00
51299;BME280;37382;45.192;9.790;2023-07-16T03:09:23;100981.47;;;24.78;100.00
51299;BME280;37382;45.192;9.790;2023-07-16T03:11:50;100986.06;;;24.48;100.00
51299;BME280;37382;45.192;9.790;2023-07-16T03:14:19;100985.50;;;24.51;100.00
51299;BME280;37382;45.192;9.790;2023-07-16T03:16:47;100996.03;;;24.55;100.00
51299;BME280;37382;45.192;9.790;2023-07-16T03:19:14;100987.75;;;24.44;100.00
51299;BME280;37382;45.192;9.790;2023-07-16T03:21:42;100996.94;;;24.34;100.00
51299;BME280;37382;45.192;9.790;2023-07-16T03:24:10;100989.09;;;24.52;100.00
51299;BME280;37382;45.192;9.790;2023-07-16T03:26:37;100990.53;;;24.39;100.00
51299;BME280;37382;45.192;9.790;2023-07-16T03:29:04;100987.28;;;24.82;100.00
51299;BME280;37382;45.192;9.790;2023-07-16T03:31:32;100988.13;;;24.77;100.00
51299;BME280;37382;45.192;9.790;2023-07-16T03:34:00;100989.38;;;24.45;100.00
51299;BME280;37382;45.192;9.790;2023-07-16T03:36:30;100989.97;;;24.47;100.00
51299;BME280;37382;45.192;9.790;2023-07-16T03:38:58;100983.50;;;24.57;100.00
51299;BME280;37382;45.192;9.790;2023-07-16T03:41:25;100988.84;;;24.48;100.00
51299;BME280;37382;45.192;9.790;2023-07-16T03:43:53;100987.16;;;24.47;100.00
51299;BME280;37382;45.192;9.790;2023-07-16T03:46:21;100989.38;;;24.45;100.00
51299;BME280;37382;45.192;9.790;2023-07-16T03:48:48;100986.75;;;24.14;100.00
51299;BME280;37382;45.192;9.790;2023-07-16T03:51:16;100991.97;;;24.31;100.00
51299;BME280;37382;45.192;9.790;2023-07-16T03:53:44;100992.59;;;24.18;100.00
51299;BME280;37382;45.192;9.790;2023-07-16T03:56:12;100991.50;;;24.04;100.00
51299;BME280;37382;45.192;9.790;2023-07-16T03:58:40;100997.28;;;24.18;100.00
51299;BME280;37382;45.192;9.790;2023-07-16T04:01:08;100997.25;;;24.28;100.00
51299;BME280;37382;45.192;9.790;2023-07-16T04:03:36;100997.03;;;24.14;100.00
51299;BME280;37382;45.192;9.790;2023-07-16T04:06:06;100987.91;;;23.98;100.00
51299;BME280;37382;45.192;9.790;2023-07-16T04:08:33;100993.19;;;23.94;100.00
51299;BME280;37382;45.192;9.790;2023-07-16T04:11:01;100997.53;;;24.26;100.00
51299;BME280;37382;45.192;9.790;2023-07-16T04:13:29;101000.69;;;23.89;100.00
51299;BME280;37382;45.192;9.790;2023-07-16T04:15:58;101002.63;;;24.04;100.00
51299;BME280;37382;45.192;9.790;2023-07-16T04:18:26;101003.88;;;24.42;100.00
51299;BME280;37382;45.192;9.790;2023-07-16T04:20:54;101006.22;;;24.09;100.00
51299;BME280;37382;45.192;9.790;2023-07-16T04:23:22;101010.66;;;24.15;100.00
51299;BME280;37382;45.192;9.790;2023-07-16T04:25:53;101015.81;;;24.48;100.00
51299;BME280;37382;45.192;9.790;2023-07-16T04:28:24;101009.06;;;24.69;100.00
51299;BME280;37382;45.192;9.790;2023-07-16T04:30:51;101008.69;;;24.86;100.00
51299;BME280;37382;45.192;9.790;2023-07-16T04:33:18;101009.09;;;24.64;100.00
51299;BME280;37382;45.192;9.790;2023-07-16T04:35:46;101009.38;;;24.63;100.00
51299;BME280;37382;45.192;9.790;2023-07-16T04:38:14;101011.44;;;24.92;100.00
51299;BME280;37382;45.192;9.790;2023-07-16T04:40:43;101021.47;;;24.93;100.00
51299;BME280;37382;45.192;9.790;2023-07-16T04:57:09;101047.53;;;24.42;100.00
51299;BME280;37382;45.192;9.790;2023-07-16T04:59:37;101040.78;;;24.68;100.00
51299;BME280;37382;45.192;9.790;2023-07-16T05:02:05;101036.94;;;24.49;100.00
51299;BME280;37382;45.192;9.790;2023-07-16T05:04:34;101042.56;;;24.33;100.00
51299;BME280;37382;45.192;9.790;2023-07-16T05:07:02;101046.97;;;24.45;100.00
51299;BME280;37382;45.192;9.790;2023-07-16T05:09:30;101044.50;;;24.38;100.00
51299;BME280;37382;45.192;9.790;2023-07-16T05:11:58;101047.03;;;24.24;100.00
51299;BME280;37382;45.192;9.790;2023-07-16T05:14:27;101047.41;;;24.78;100.00
51299;BME280;37382;45.192;9.790;2023-07-16T05:16:56;101054.25;;;25.01;100.00
51299;BME280;37382;45.192;9.790;2023-07-16T05:19:24;101057.47;;;24.63;100.00
51299;BME280;37382;45.192;9.790;2023-07-16T05:21:52;101054.75;;;24.58;100.00
51299;BME280;37382;45.192;9.790;2023-07-16T05:24:19;101059.09;;;24.80;100.00
51299;BME280;37382;45.192;9.790;2023-07-16T05:26:47;101063.63;;;24.60;100.00
51299;BME280;37382;45.192;9.790;2023-07-16T05:29:17;101066.47;;;25.00;100.00
51299;BME280;37382;45.192;9.790;2023-07-16T05:31:45;101056.34;;;25.25;100.00
51299;BME280;37382;45.192;9.790;2023-07-16T05:34:13;101063.03;;;25.18;100.00
51299;BME280;37382;45.192;9.790;2023-07-16T05:36:42;101067.63;;;24.94;100.00
51299;BME280;37382;45.192;9.790;2023-07-16T05:39:09;101070.84;;;25.21;100.00
51299;BME280;37382;45.192;9.790;2023-07-16T05:41:40;101075.88;;;25.09;100.00
51299;BME280;37382;45.192;9.790;2023-07-16T05:44:08;101074.66;;;25.36;100.00
51299;BME280;37382;45.192;9.790;2023-07-16T05:46:36;101079.72;;;25.18;100.00
51299;BME280;37382;45.192;9.790;2023-07-16T05:49:03;101081.84;;;25.42;100.00
51299;BME280;37382;45.192;9.790;2023-07-16T05:51:31;101078.53;;;25.40;100.00
51299;BME280;37382;45.192;9.790;2023-07-16T05:53:58;101090.50;;;25.75;100.00
51299;BME280;37382;45.192;9.790;2023-07-16T05:56:26;101081.66;;;25.97;100.00
51299;BME280;37382;45.192;9.790;2023-07-16T05:58:54;101079.63;;;26.08;100.00
51299;BME280;37382;45.192;9.790;2023-07-16T06:01:22;101081.72;;;26.21;100.00
51299;BME280;37382;45.192;9.790;2023-07-16T06:03:49;101089.28;;;26.45;100.00
51299;BME280;37382;45.192;9.790;2023-07-16T06:06:17;101094.44;;;26.57;100.00
51299;BME280;37382;45.192;9.790;2023-07-16T06:08:45;101097.50;;;26.31;100.00
51299;BME280;37382;45.192;9.790;2023-07-16T06:11:13;101094.97;;;26.59;100.00
51299;BME280;37382;45.192;9.790;2023-07-16T06:13:40;101098.28;;;26.37;100.00
51299;BME280;37382;45.192;9.790;2023-07-16T06:16:08;101094.00;;;26.20;100.00
51299;BME280;37382;45.192;9.790;2023-07-16T06:18:36;101096.06;;;26.09;100.00
51299;BME280;37382;45.192;9.790;2023-07-16T06:21:03;101100.94;;;26.23;100.00
51299;BME280;37382;45.192;9.790;2023-07-16T06:23:31;101101.41;;;26.06;100.00
51299;BME280;37382;45.192;9.790;2023-07-16T06:25:58;101098.63;;;26.06;100.00
51299;BME280;37382;45.192;9.790;2023-07-16T06:28:26;101106.66;;;26.61;100.00
51299;BME280;37382;45.192;9.790;2023-07-16T06:30:53;101098.72;;;25.90;100.00
51299;BME280;37382;45.192;9.790;2023-07-16T06:33:20;101104.88;;;25.87;100.00
51299;BME280;37382;45.192;9.790;2023-07-16T06:35:48;101107.69;;;25.82;100.00
51299;BME280;37382;45.192;9.790;2023-07-16T06:38:15;101103.34;;;26.35;100.00
51299;BME280;37382;45.192;9.790;2023-07-16T06:40:47;101102.88;;;26.52;100.00
51299;BME280;37382;45.192;9.790;2023-07-16T06:43:16;101110.16;;;26.48;100.00
51299;BME280;37382;45.192;9.790;2023-07-16T06:45:44;101110.28;;;26.37;100.00
51299;BME280;37382;45.192;9.790;2023-07-16T06:48:11;101105.06;;;26.31;100.00
51299;BME280;37382;45.192;9.790;2023-07-16T06:50:39;101109.81;;;26.30;100.00
51299;BME280;37382;45.192;9.790;2023-07-16T06:53:07;101106.63;;;26.42;100.00
51299;BME280;37382;45.192;9.790;2023-07-16T06:55:34;101102.81;;;26.81;100.00
51299;BME280;37382;45.192;9.790;2023-07-16T06:58:01;101106.34;;;26.38;100.00
51299;BME280;37382;45.192;9.790;2023-07-16T07:00:29;101102.16;;;26.41;100.00
51299;BME280;37382;45.192;9.790;2023-07-16T07:02:57;101097.31;;;26.76;100.00
51299;BME280;37382;45.192;9.790;2023-07-16T07:05:24;101104.84;;;26.51;100.00
51299;BME280;37382;45.192;9.790;2023-07-16T07:07:52;101101.66;;;26.34;100.00
51299;BME280;37382;45.192;9.790;2023-07-16T07:10:20;101108.53;;;26.71;100.00
51299;BME280;37382;45.192;9.790;2023-07-16T07:12:47;101112.63;;;26.54;100.00
51299;BME280;37382;45.192;9.790;2023-07-16T07:15:15;101110.78;;;26.69;100.00
51299;BME280;37382;45.192;9.790;2023-07-16T07:17:43;101106.88;;;26.64;100.00
51299;BME280;37382;45.192;9.790;2023-07-16T07:20:14;101115.44;;;26.97;100.00
51299;BME280;37382;45.192;9.790;2023-07-16T07:22:41;101111.44;;;26.60;100.00
51299;BME280;37382;45.192;9.790;2023-07-16T07:25:09;101108.69;;;26.79;100.00
51299;BME280;37382;45.192;9.790;2023-07-16T07:27:37;101107.91;;;26.98;100.00
51299;BME280;37382;45.192;9.790;2023-07-16T07:30:05;101109.59;;;27.18;100.00
51299;BME280;37382;45.192;9.790;2023-07-16T07:32:37;101114.28;;;27.42;100.00
51299;BME280;37382;45.192;9.790;2023-07-16T07:35:05;101104.38;;;27.30;100.00
51299;BME280;37382;45.192;9.790;2023-07-16T07:37:33;101103.22;;;27.31;100.00
51299;BME280;37382;45.192;9.790;2023-07-16T07:40:01;101111.47;;;27.23;100.00
51299;BME280;37382;45.192;9.790;2023-07-16T07:42:30;101110.13;;;27.39;100.00
51299;BME280;37382;45.192;9.790;2023-07-16T07:44:57;101109.06;;;27.54;100.00
51299;BME280;37382;45.192;9.790;2023-07-16T07:47:24;101109.53;;;27.42;100.00
51299;BME280;37382;45.192;9.790;2023-07-16T07:49:53;101114.44;;;27.50;100.00
51299;BME280;37382;45.192;9.790;2023-07-16T07:52:21;101119.97;;;27.37;100.00
51299;BME280;37382;45.192;9.790;2023-07-16T07:54:49;101132.72;;;27.43;100.00
51299;BME280;37382;45.192;9.790;2023-07-16T07:57:17;101131.97;;;27.37;100.00
51299;BME280;37382;45.192;9.790;2023-07-16T07:59:45;101128.94;;;27.72;100.00
51299;BME280;37382;45.192;9.790;2023-07-16T08:02:12;101122.97;;;27.59;100.00
51299;BME280;37382;45.192;9.790;2023-07-16T08:04:40;101123.44;;;27.47;100.00
51299;BME280;37382;45.192;9.790;2023-07-16T08:07:08;101118.00;;;27.89;100.00
51299;BME280;37382;45.192;9.790;2023-07-16T08:09:37;101111.59;;;27.89;100.00
51299;BME280;37382;45.192;9.790;2023-07-16T08:12:05;101111.19;;;28.28;100.00
51299;BME280;37382;45.192;9.790;2023-07-16T08:14:32;101106.69;;;28.13;100.00
51299;BME280;37382;45.192;9.790;2023-07-16T08:17:00;101116.75;;;28.14;100.00
51299;BME280;37382;45.192;9.790;2023-07-16T08:19:28;101107.81;;;28.59;100.00
51299;BME280;37382;45.192;9.790;2023-07-16T08:21:56;101120.63;;;28.46;100.00
51299;BME280;37382;45.192;9.790;2023-07-16T08:24:25;101111.31;;;28.51;100.00
51299;BME280;37382;45.192;9.790;2023-07-16T08:26:53;101121.00;;;28.12;100.00
51299;BME280;37382;45.192;9.790;2023-07-16T08:29:20;101113.16;;;28.28;100.00
51299;BME280;37382;45.192;9.790;2023-07-16T08:31:47;101131.91;;;28.55;100.00
51299;BME280;37382;45.192;9.790;2023-07-16T08:34:15;101127.31;;;28.78;100.00
51299;BME280;37382;45.192;9.790;2023-07-16T08:36:43;101134.38;;;28.29;100.00
51299;BME280;37382;45.192;9.790;2023-07-16T08:39:11;101129.84;;;28.33;100.00
51299;BME280;37382;45.192;9.790;2023-07-16T08:41:39;101135.56;;;28.42;100.00
51299;BME280;37382;45.192;9.790;2023-07-16T08:44:07;101138.19;;;28.80;100.00
51299;BME280;37382;45.192;9.790;2023-07-16T08:46:34;101145.44;;;28.81;100.00
51299;BME280;37382;45.192;9.790;2023-07-16T08:49:05;101142.44;;;28.91;100.00
51299;BME280;37382;45.192;9.790;2023-07-16T08:51:34;101144.03;;;29.34;100.00
51299;BME280;37382;45.192;9.790;2023-07-16T08:54:01;101144.31;;;29.83;100.00
51299;BME280;37382;45.192;9.790;2023-07-16T08:56:29;101148.56;;;29.80;100.00
51299;BME280;37382;45.192;9.790;2023-07-16T08:58:58;101149.88;;;29.37;100.00
51299;BME280;37382;45.192;9.790;2023-07-16T09:01:27;101144.31;;;29.46;100.00
51299;BME280;37382;45.192;9.790;2023-07-16T09:03:55;101140.59;;;29.73;100.00
51299;BME280;37382;45.192;9.790;2023-07-16T09:06:22;101132.59;;;30.03;100.00
51299;BME280;37382;45.192;9.790;2023-07-16T09:08:50;101138.53;;;29.42;100.00
51299;BME280;37382;45.192;9.790;2023-07-16T09:11:18;101143.84;;;29.16;100.00
51299;BME280;37382;45.192;9.790;2023-07-16T09:13:49;101139.72;;;29.00;100.00
51299;BME280;37382;45.192;9.790;2023-07-16T09:16:20;101149.47;;;29.16;100.00
51299;BME280;37382;45.192;9.790;2023-07-16T09:18:48;101150.13;;;29.50;100.00
51299;BME280;37382;45.192;9.790;2023-07-16T09:21:15;101150.72;;;29.60;100.00
51299;BME280;37382;45.192;9.790;2023-07-16T09:23:44;101155.47;;;29.37;100.00
51299;BME280;37382;45.192;9.790;2023-07-16T09:26:12;101141.22;;;29.70;100.00
51299;BME280;37382;45.192;9.790;2023-07-16T09:28:40;101142.94;;;29.57;100.00
51299;BME280;37382;45.192;9.790;2023-07-16T09:31:07;101147.00;;;29.88;100.00
51299;BME280;37382;45.192;9.790;2023-07-16T09:33:35;101142.94;;;30.03;100.00
51299;BME280;37382;45.192;9.790;2023-07-16T09:36:03;101145.06;;;29.74;100.00
51299;BME280;37382;45.192;9.790;2023-07-16T09:38:31;101139.19;;;29.62;100.00
51299;BME280;37382;45.192;9.790;2023-07-16T09:41:02;101144.28;;;30.28;100.00
51299;BME280;37382;45.192;9.790;2023-07-16T09:43:31;101134.81;;;30.15;100.00
51299;BME280;37382;45.192;9.790;2023-07-16T09:46:00;101138.19;;;30.66;100.00
51299;BME280;37382;45.192;9.790;2023-07-16T09:48:27;101135.09;;;30.76;100.00
51299;BME280;37382;45.192;9.790;2023-07-16T09:50:55;101144.69;;;29.90;100.00
51299;BME280;37382;45.192;9.790;2023-07-16T09:53:24;101145.09;;;29.97;100.00
51299;BME280;37382;45.192;9.790;2023-07-16T09:55:55;101144.63;;;30.04;100.00
51299;BME280;37382;45.192;9.790;2023-07-16T09:58:23;101150.69;;;30.20;100.00
51299;BME280;37382;45.192;9.790;2023-07-16T10:00:52;101137.63;;;30.24;100.00
51299;BME280;37382;45.192;9.790;2023-07-16T10:03:20;101132.56;;;30.34;100.00
51299;BME280;37382;45.192;9.790;2023-07-16T10:05:48;101137.50;;;30.60;100.00
51299;BME280;37382;45.192;9.790;2023-07-16T10:08:18;101123.63;;;30.55;100.00
51299;BME280;37382;45.192;9.790;2023-07-16T10:10:48;101122.00;;;30.63;100.00
51299;BME280;37382;45.192;9.790;2023-07-16T10:13:16;101128.56;;;30.98;100.00
51299;BME280;37382;45.192;9.790;2023-07-16T10:15:52;101133.28;;;30.80;100.00
51299;BME280;37382;45.192;9.790;2023-07-16T10:18:29;101135.84;;;31.17;100.00
51299;BME280;37382;45.192;9.790;2023-07-16T10:21:06;101135.69;;;31.04;100.00
51299;BME280;37382;45.192;9.790;2023-07-16T10:23:44;101135.06;;;31.25;100.00
51299;BME280;37382;45.192;9.790;2023-07-16T10:26:14;101135.53;;;31.18;100.00
51299;BME280;37382;45.192;9.790;2023-07-16T10:28:47;101129.28;;;31.48;100.00
51299;BME280;37382;45.192;9.790;2023-07-16T10:31:21;101133.72;;;31.14;100.00
51299;BME280;37382;45.192;9.790;2023-07-16T10:34:01;101130.84;;;30.96;100.00
51299;BME280;37382;45.192;9.790;2023-07-16T10:36:36;101130.81;;;30.87;100.00
51299;BME280;37382;45.192;9.790;2023-07-16T10:39:04;101134.41;;;31.28;100.00
51299;BME280;37382;45.192;9.790;2023-07-16T10:41:32;101129.16;;;31.62;100.00
51299;BME280;37382;45.192;9.790;2023-07-16T10:44:02;101127.47;;;31.78;100.00
51299;BME280;37382;45.192;9.790;2023-07-16T10:46:31;101117.56;;;32.37;100.00
51299;BME280;37382;45.192;9.790;2023-07-16T10:49:02;101119.22;;;32.47;100.00
51299;BME280;37382;45.192;9.790;2023-07-16T10:51:30;101124.59;;;32.22;100.00
51299;BME280;37382;45.192;9.790;2023-07-16T10:53:57;101117.78;;;32.32;100.00
51299;BME280;37382;45.192;9.790;2023-07-16T10:56:25;101128.03;;;32.36;100.00
51299;BME280;37382;45.192;9.790;2023-07-16T10:58:53;101119.88;;;32.43;100.00
51299;BME280;37382;45.192;9.790;2023-07-16T11:01:20;101123.44;;;32.61;100.00
51299;BME280;37382;45.192;9.790;2023-07-16T11:03:48;101124.47;;;32.01;100.00
51299;BME280;37382;45.192;9.790;2023-07-16T11:06:18;101115.31;;;32.30;100.00
51299;BME280;37382;45.192;9.790;2023-07-16T11:08:47;101114.69;;;32.93;100.00
51299;BME280;37382;45.192;9.790;2023-07-16T11:11:15;101113.34;;;33.20;100.00
51299;BME280;37382;45.192;9.790;2023-07-16T11:13:43;101113.47;;;33.66;100.00
51299;BME280;37382;45.192;9.790;2023-07-16T11:16:15;101120.09;;;33.28;100.00
51299;BME280;37382;45.192;9.790;2023-07-16T11:18:43;101117.56;;;32.45;100.00
51299;BME280;37382;45.192;9.790;2023-07-16T11:21:11;101107.56;;;33.16;100.00
51299;BME280;37382;45.192;9.790;2023-07-16T11:23:38;101106.97;;;33.86;100.00
51299;BME280;37382;45.192;9.790;2023-07-16T11:26:06;101109.91;;;34.24;100.00
51299;BME280;37382;45.192;9.790;2023-07-16T11:28:41;101106.50;;;33.63;100.00
51299;BME280;37382;45.192;9.790;2023-07-16T11:31:16;101106.31;;;33.68;100.00
51299;BME280;37382;45.192;9.790;2023-07-16T11:33:45;101098.75;;;34.39;100.00
51299;BME280;37382;45.192;9.790;2023-07-16T11:36:13;101097.47;;;34.74;100.00
51299;BME280;37382;45.192;9.790;2023-07-16T11:38:42;101098.78;;;34.64;100.00
51299;BME280;37382;45.192;9.790;2023-07-16T11:41:10;101093.56;;;34.91;100.00
51299;BME280;37382;45.192;9.790;2023-07-16T11:43:40;101092.88;;;34.94;99.91
51299;BME280;37382;45.192;9.790;2023-07-16T11:46:15;101093.31;;;35.08;96.41
51299;BME280;37382;45.192;9.790;2023-07-16T11:48:44;101091.66;;;35.07;96.27
51299;BME280;37382;45.192;9.790;2023-07-16T11:51:12;101092.34;;;35.29;93.59
51299;BME280;37382;45.192;9.790;2023-07-16T11:53:40;101092.06;;;35.47;88.30
51299;BME280;37382;45.192;9.790;2023-07-16T11:56:07;101082.81;;;35.09;90.83
51299;BME280;37382;45.192;9.790;2023-07-16T11:58:36;101086.94;;;35.12;88.43
51299;BME280;37382;45.192;9.790;2023-07-16T12:01:04;101082.19;;;34.63;89.04
51299;BME280;37382;45.192;9.790;2023-07-16T12:03:31;101085.47;;;34.52;84.53
51299;BME280;37382;45.192;9.790;2023-07-16T12:05:59;101079.72;;;35.26;85.71
51299;BME280;37382;45.192;9.790;2023-07-16T12:08:26;101076.84;;;35.67;79.80
51299;BME280;37382;45.192;9.790;2023-07-16T12:10:54;101078.66;;;35.88;80.91
51299;BME280;37382;45.192;9.790;2023-07-16T12:13:22;101080.84;;;35.94;76.64
51299;BME280;37382;45.192;9.790;2023-07-16T12:15:49;101075.84;;;36.04;75.63
51299;BME280;37382;45.192;9.790;2023-07-16T12:18:16;101073.66;;;36.13;71.95
51299;BME280;37382;45.192;9.790;2023-07-16T12:20:44;101080.25;;;36.17;69.61
51299;BME280;37382;45.192;9.790;2023-07-16T12:23:12;101070.91;;;36.01;71.22
51299;BME280;37382;45.192;9.790;2023-07-16T12:25:40;101068.88;;;36.01;67.84
51299;BME280;37382;45.192;9.790;2023-07-16T12:28:08;101074.66;;;36.05;69.15
51299;BME280;37382;45.192;9.790;2023-07-16T12:30:36;101066.09;;;36.49;71.21
51299;BME280;37382;45.192;9.790;2023-07-16T12:33:04;101066.63;;;36.55;67.96
51299;BME280;37382;45.192;9.790;2023-07-16T12:35:32;101059.56;;;36.64;68.37
51299;BME280;37382;45.192;9.790;2023-07-16T12:37:59;101061.06;;;36.94;69.05
51299;BME280;37382;45.192;9.790;2023-07-16T12:40:29;101058.56;;;37.08;70.03
51299;BME280;37382;45.192;9.790;2023-07-16T12:42:57;101062.09;;;36.85;69.83
51299;BME280;37382;45.192;9.790;2023-07-16T12:45:24;101064.56;;;36.87;69.28
51299;BME280;37382;45.192;9.790;2023-07-16T12:47:52;101052.81;;;37.24;68.34
51299;BME280;37382;45.192;9.790;2023-07-16T12:50:20;101054.69;;;37.75;69.02
51299;BME280;37382;45.192;9.790;2023-07-16T12:52:48;101060.16;;;37.25;63.14
51299;BME280;37382;45.192;9.790;2023-07-16T12:55:16;101057.19;;;37.21;66.49
51299;BME280;37382;45.192;9.790;2023-07-16T12:57:43;101063.31;;;37.63;62.39
51299;BME280;37382;45.192;9.790;2023-07-16T13:00:11;101056.16;;;37.69;61.02
51299;BME280;37382;45.192;9.790;2023-07-16T13:02:39;101060.34;;;37.75;63.05
51299;BME280;37382;45.192;9.790;2023-07-16T13:05:06;101053.97;;;37.82;60.98
51299;BME280;37382;45.192;9.790;2023-07-16T13:07:34;101055.06;;;37.73;62.10